createdAt,value
2023-03-29T00:00:21.036Z,54.58
2023-03-29T00:03:24.959Z,54.79
2023-03-29T00:06:33.304Z,54.82
2023-03-29T00:09:36.438Z,54.50
2023-03-29T00:12:40.593Z,54.59
2023-03-29T00:15:43.231Z,54.51
2023-03-29T00:18:47.014Z,54.47
2023-03-29T00:21:49.794Z,54.17
2023-03-29T00:24:54.206Z,54.35
2023-03-29T00:27:57.009Z,54.68
2023-03-29T00:31:07.235Z,54.42
2023-03-29T00:34:11.659Z,54.46
2023-03-29T00:37:14.893Z,53.98
2023-03-29T00:40:17.631Z,54.23
2023-03-29T00:43:20.191Z,54.32
2023-03-29T00:46:22.983Z,54.24
2023-03-29T00:49:27.448Z,54.46
2023-03-29T00:52:32.166Z,54.37
2023-03-29T00:55:38.498Z,54.34
2023-03-29T00:58:45.376Z,54.00
2023-03-29T01:01:55.146Z,54.14
2023-03-29T01:05:01.585Z,54.12
2023-03-29T01:08:07.331Z,54.30
2023-03-29T01:11:15.749Z,54.42
2023-03-29T01:14:21.884Z,54.04
2023-03-29T01:17:25.646Z,54.22
2023-03-29T01:20:42.242Z,54.34
2023-03-29T01:23:59.130Z,53.94
2023-03-29T01:27:06.433Z,54.45
2023-03-29T01:30:14.599Z,53.82
2023-03-29T01:33:23.467Z,54.23
2023-03-29T01:36:30.716Z,53.99
2023-03-29T01:39:34.945Z,54.10
2023-03-29T01:42:46.623Z,54.31
2023-03-29T01:45:56.314Z,54.13
2023-03-29T01:49:03.509Z,54.29
2023-03-29T01:52:12.096Z,54.09
2023-03-29T01:55:20.232Z,53.90
2023-03-29T01:58:26.981Z,53.97
2023-03-29T02:01:38.370Z,54.13
2023-03-29T02:04:47.988Z,53.77
2023-03-29T02:07:52.840Z,54.45
2023-03-29T02:10:55.816Z,54.04
2023-03-29T02:13:58.871Z,54.13
2023-03-29T02:17:16.538Z,53.93
2023-03-29T02:20:22.558Z,54.13
2023-03-29T02:23:34.372Z,54.27
2023-03-29T02:26:37.352Z,54.09
2023-03-29T02:29:40.039Z,54.06
2023-03-29T02:32:50.692Z,53.93
2023-03-29T02:35:57.805Z,54.30
2023-03-29T02:39:04.542Z,54.29
2023-03-29T02:42:07.998Z,54.34
2023-03-29T02:45:13.308Z,53.88
2023-03-29T02:48:21.804Z,53.87
2023-03-29T02:51:28.329Z,54.18
2023-03-29T02:54:31.635Z,54.06
2023-03-29T02:57:35.660Z,53.88
2023-03-29T03:00:41.296Z,53.92
2023-03-29T03:03:45.365Z,53.84
2023-03-29T03:06:49.011Z,53.83
2023-03-29T03:09:51.886Z,54.38
2023-03-29T03:12:54.534Z,53.69
2023-03-29T03:15:56.992Z,54.07
2023-03-29T03:19:01.211Z,53.93
2023-03-29T03:22:05.952Z,54.13
2023-03-29T03:25:11.208Z,54.00
2023-03-29T03:28:13.959Z,54.33
2023-03-29T03:31:17.452Z,54.03
2023-03-29T03:34:21.543Z,53.86
2023-03-29T03:37:24.087Z,54.24
2023-03-29T03:40:28.292Z,54.23
2023-03-29T03:43:31.375Z,53.76
2023-03-29T03:46:33.990Z,53.70
2023-03-29T03:49:37.832Z,53.86
2023-03-29T03:52:40.355Z,54.19
2023-03-29T03:55:42.826Z,53.84
2023-03-29T03:58:45.780Z,53.99
2023-03-29T04:01:48.508Z,53.98
2023-03-29T04:04:52.270Z,54.05
2023-03-29T04:07:56.138Z,53.93
2023-03-29T04:11:01.126Z,54.00
2023-03-29T04:14:04.378Z,53.81
2023-03-29T04:17:07.302Z,53.88
2023-03-29T04:20:12.754Z,54.29
2023-03-29T04:23:16.076Z,54.70
2023-03-29T04:26:18.868Z,54.53
2023-03-29T04:29:21.326Z,54.55
2023-03-29T04:32:24.801Z,54.00
2023-03-29T04:35:28.817Z,54.37
2023-03-29T04:38:31.245Z,54.44
2023-03-29T04:41:34.295Z,54.08
2023-03-29T04:44:37.769Z,53.95
2023-03-29T04:47:40.428Z,54.28
2023-03-29T04:50:47.461Z,53.88
2023-03-29T04:53:50.499Z,54.06
2023-03-29T04:56:53.879Z,54.18
2023-03-29T04:59:58.489Z,54.31
2023-03-29T05:03:01.139Z,54.15
2023-03-29T05:06:07.534Z,53.70
2023-03-29T05:09:10.527Z,53.82
2023-03-29T05:12:13.014Z,54.00
2023-03-29T05:15:15.594Z,53.96
2023-03-29T05:18:18.449Z,54.10
2023-03-29T05:21:22.400Z,54.04
2023-03-29T05:24:25.360Z,54.15
2023-03-29T05:27:27.855Z,54.29
2023-03-29T05:30:30.361Z,54.26
2023-03-29T05:33:34.154Z,54.18
2023-03-29T05:36:39.125Z,53.79
2023-03-29T05:39:43.049Z,53.97
2023-03-29T05:42:46.278Z,53.85
2023-03-29T05:45:49.089Z,53.90
2023-03-29T05:48:51.694Z,54.05
2023-03-29T05:51:57.244Z,53.92
2023-03-29T05:54:59.768Z,53.87
2023-03-29T05:58:02.855Z,54.06
2023-03-29T06:01:05.989Z,54.06
2023-03-29T06:04:08.574Z,54.29
2023-03-29T06:07:13.061Z,54.29
2023-03-29T06:10:15.931Z,54.36
2023-03-29T06:13:18.451Z,54.24
2023-03-29T06:16:20.971Z,54.18
2023-03-29T06:19:24.186Z,54.14
2023-03-29T06:22:28.641Z,54.32
2023-03-29T06:25:31.777Z,54.20
2023-03-29T06:28:34.481Z,54.13
2023-03-29T06:31:37.418Z,54.07
2023-03-29T06:34:40.880Z,54.04
2023-03-29T06:37:49.559Z,53.75
2023-03-29T06:40:52.770Z,54.23
2023-03-29T06:43:55.689Z,53.88
2023-03-29T06:46:58.120Z,53.98
2023-03-29T06:50:00.764Z,54.50
2023-03-29T06:53:05.305Z,54.38
2023-03-29T06:56:09.779Z,54.25
2023-03-29T06:59:13.450Z,54.36
2023-03-29T07:02:16.421Z,54.28
2023-03-29T07:05:20.031Z,54.24
2023-03-29T07:08:30.859Z,54.41
2023-03-29T07:11:35.352Z,54.58
2023-03-29T07:14:37.995Z,54.90
2023-03-29T07:17:40.908Z,54.47
2023-03-29T07:20:43.583Z,54.34
2023-03-29T07:23:47.509Z,54.33
2023-03-29T07:27:03.461Z,54.43
2023-03-29T07:30:11.215Z,54.55
2023-03-29T07:33:14.256Z,54.94
2023-03-29T07:36:17.072Z,54.90
2023-03-29T07:39:22.272Z,54.43
2023-03-29T07:42:24.910Z,54.73
2023-03-29T07:45:29.798Z,54.49
2023-03-29T07:48:32.379Z,54.54
2023-03-29T07:51:36.549Z,54.67
2023-03-29T07:54:40.535Z,54.80
2023-03-29T07:57:44.260Z,54.80
2023-03-29T08:00:46.859Z,54.61
2023-03-29T08:03:49.858Z,54.53
2023-03-29T08:06:52.858Z,54.60
2023-03-29T08:09:57.466Z,54.59
2023-03-29T08:13:00.284Z,54.97
2023-03-29T08:16:03.380Z,54.88
2023-03-29T08:19:06.747Z,54.99
2023-03-29T08:22:09.497Z,54.71
2023-03-29T08:25:13.875Z,54.91
2023-03-29T08:28:16.415Z,54.85
2023-03-29T08:31:19.246Z,54.69
2023-03-29T08:34:28.694Z,54.87
2023-03-29T08:37:47.915Z,54.58
2023-03-29T08:40:51.872Z,54.62
2023-03-29T08:44:04.314Z,54.59
2023-03-29T08:47:18.659Z,54.88
2023-03-29T08:50:23.329Z,54.76
2023-03-29T08:53:30.675Z,54.69
2023-03-29T08:56:39.553Z,54.59
2023-03-29T08:59:44.125Z,54.70
2023-03-29T09:02:48.149Z,55.15
2023-03-29T09:05:55.674Z,54.98
2023-03-29T09:09:02.267Z,54.85
2023-03-29T09:12:17.937Z,54.94
2023-03-29T09:15:25.716Z,55.03
2023-03-29T09:18:38.059Z,54.73
2023-03-29T09:21:47.267Z,54.92
2023-03-29T09:25:03.270Z,55.11
2023-03-29T09:28:14.899Z,55.16
2023-03-29T09:31:27.180Z,55.17
2023-03-29T09:34:32.683Z,55.13
2023-03-29T09:37:39.250Z,55.16
2023-03-29T09:40:45.014Z,55.22
2023-03-29T09:43:51.421Z,55.02
2023-03-29T09:46:57.034Z,55.11
2023-03-29T09:50:03.709Z,54.84
2023-03-29T09:53:06.398Z,55.12
2023-03-29T09:56:09.224Z,55.10
2023-03-29T09:59:13.504Z,55.33
2023-03-29T10:02:16.318Z,55.48
2023-03-29T10:05:19.947Z,55.23
2023-03-29T10:08:26.989Z,55.01
2023-03-29T10:11:32.832Z,55.26
2023-03-29T10:14:39.243Z,55.53
2023-03-29T10:17:43.211Z,55.60
2023-03-29T10:20:45.773Z,55.17
2023-03-29T10:23:49.231Z,55.33
2023-03-29T10:26:55.447Z,55.12
2023-03-29T10:30:01.199Z,55.25
2023-03-29T10:33:05.212Z,55.41
2023-03-29T10:36:09.727Z,55.38
2023-03-29T10:39:16.060Z,55.09
2023-03-29T10:42:23.858Z,55.14
2023-03-29T10:45:30.213Z,55.52
2023-03-29T10:48:38.589Z,55.15
2023-03-29T10:51:46.837Z,55.33
2023-03-29T10:54:51.627Z,55.39
2023-03-29T10:58:07.543Z,55.38
2023-03-29T11:01:19.160Z,55.73
2023-03-29T11:04:31.957Z,55.39
2023-03-29T11:07:38.467Z,55.28
2023-03-29T11:10:50.443Z,55.51
2023-03-29T11:14:00.134Z,55.61
2023-03-29T11:17:19.114Z,55.54
2023-03-29T11:20:30.140Z,55.20
2023-03-29T11:23:46.190Z,55.51
2023-03-29T11:27:00.151Z,55.57
2023-03-29T11:30:13.218Z,55.55
2023-03-29T11:33:34.207Z,55.50
2023-03-29T11:36:50.402Z,55.49
2023-03-29T11:40:24.730Z,55.49
2023-03-29T11:56:46.566Z,55.63
2023-03-29T12:08:38.341Z,55.77
2023-03-29T12:12:17.174Z,55.60
2023-03-29T12:34:25.532Z,55.78
2023-03-29T13:04:38.776Z,56.37
2023-03-29T13:07:48.709Z,56.13
2023-03-29T13:10:55.162Z,56.15
2023-03-29T13:13:57.851Z,56.30
2023-03-29T13:17:15.966Z,55.96
2023-03-29T13:20:39.182Z,55.95
2023-03-29T13:23:49.213Z,55.99
2023-03-29T13:27:01.517Z,56.21
2023-03-29T13:30:22.792Z,56.37
2023-03-29T13:33:52.492Z,56.49
2023-03-29T13:37:08.698Z,56.50
2023-03-29T13:40:34.405Z,56.19
2023-03-29T13:43:49.721Z,56.63
2023-03-29T13:47:03.960Z,56.47
2023-03-29T13:50:16.541Z,56.73
2023-03-29T13:53:27.913Z,56.40
2023-03-29T13:56:37.429Z,56.53
2023-03-29T13:59:49.103Z,56.42
2023-03-29T14:02:56.062Z,56.73
2023-03-29T14:06:02.633Z,56.67
2023-03-29T14:09:08.976Z,56.48
2023-03-29T14:12:14.996Z,56.36
2023-03-29T14:15:24.900Z,56.82
2023-03-29T14:18:33.004Z,56.53
2023-03-29T14:21:36.989Z,56.93
2023-03-29T14:24:41.272Z,56.73
2023-03-29T14:27:44.000Z,56.94
2023-03-29T14:30:47.786Z,56.67
2023-03-29T14:33:54.420Z,56.51
2023-03-29T14:36:58.682Z,56.83
2023-03-29T14:40:02.351Z,56.93
2023-03-29T14:43:07.008Z,56.98
2023-03-29T14:46:10.929Z,57.04
2023-03-29T14:49:16.828Z,56.85
2023-03-29T14:52:20.977Z,56.82
2023-03-29T14:55:24.864Z,57.03
2023-03-29T14:58:29.678Z,56.92
2023-03-29T15:01:32.425Z,56.99
2023-03-29T15:04:36.088Z,57.07
2023-03-29T15:07:40.549Z,56.86
2023-03-29T15:10:45.089Z,57.27
2023-03-29T15:13:49.066Z,57.03
2023-03-29T15:16:54.223Z,57.03
2023-03-29T15:20:01.212Z,57.31
2023-03-29T15:23:20.065Z,57.25
2023-03-29T15:26:26.214Z,57.22
2023-03-29T15:29:36.971Z,57.44
2023-03-29T15:32:41.645Z,57.56
2023-03-29T15:35:50.084Z,57.43
2023-03-29T15:38:53.929Z,57.29
2023-03-29T15:41:58.436Z,57.35
2023-03-29T15:45:06.131Z,57.49
2023-03-29T15:48:16.232Z,57.70
2023-03-29T15:51:18.661Z,57.48
2023-03-29T15:54:24.433Z,57.39
2023-03-29T15:57:27.159Z,57.75
2023-03-29T16:00:29.861Z,57.73
2023-03-29T16:03:32.390Z,57.31
2023-03-29T16:06:36.044Z,58.01
2023-03-29T16:09:40.230Z,58.36
2023-03-29T16:12:42.893Z,58.25
2023-03-29T16:15:46.749Z,57.97
2023-03-29T16:18:49.268Z,57.90
2023-03-29T16:21:52.581Z,57.91
2023-03-29T16:24:56.423Z,57.77
2023-03-29T16:27:58.855Z,57.76
2023-03-29T16:31:01.509Z,57.98
2023-03-29T16:34:04.632Z,57.94
2023-03-29T16:37:07.633Z,58.09
2023-03-29T16:40:13.959Z,57.70
2023-03-29T16:43:18.698Z,58.17
2023-03-29T16:46:21.297Z,57.98
2023-03-29T16:49:24.458Z,57.92
2023-03-29T16:52:27.649Z,58.08
2023-03-29T16:55:31.730Z,58.11
2023-03-29T16:58:34.335Z,58.12
2023-03-29T17:01:37.386Z,57.94
2023-03-29T17:04:40.047Z,58.09
2023-03-29T17:07:43.422Z,58.14
2023-03-29T17:10:47.698Z,58.32
2023-03-29T17:13:50.463Z,58.42
2023-03-29T17:16:53.511Z,58.38
2023-03-29T17:19:56.739Z,58.22
2023-03-29T17:22:59.389Z,58.23
2023-03-29T17:26:03.437Z,58.40
2023-03-29T17:29:06.550Z,58.57
2023-03-29T17:32:09.041Z,58.40
2023-03-29T17:35:12.711Z,58.38
2023-03-29T17:38:15.343Z,58.57
2023-03-29T17:41:19.222Z,58.35
2023-03-29T17:44:21.997Z,58.50
2023-03-29T17:47:24.450Z,58.34
2023-03-29T17:50:27.245Z,58.44
2023-03-29T17:53:29.903Z,58.41
2023-03-29T17:56:33.892Z,58.53
2023-03-29T17:59:36.936Z,58.50
2023-03-29T18:02:40.633Z,58.37
2023-03-29T18:05:43.236Z,58.35
2023-03-29T18:08:46.364Z,58.39
2023-03-29T18:11:50.608Z,58.57
2023-03-29T18:14:53.349Z,58.39
2023-03-29T18:17:56.178Z,58.70
2023-03-29T18:20:59.062Z,58.49
2023-03-29T18:24:01.542Z,58.49
2023-03-29T18:27:05.596Z,58.31
2023-03-29T18:30:09.497Z,58.65
2023-03-29T18:33:12.235Z,58.55
2023-03-29T18:36:15.535Z,58.62
2023-03-29T18:39:18.310Z,58.59
2023-03-29T18:42:22.234Z,58.58
2023-03-29T18:45:24.748Z,58.57
2023-03-29T18:48:27.456Z,58.54
2023-03-29T18:51:31.005Z,58.66
2023-03-29T18:54:34.753Z,58.69
2023-03-29T18:57:38.610Z,58.67
2023-03-29T19:00:42.206Z,58.75
2023-03-29T19:03:44.957Z,58.88
2023-03-29T19:06:49.295Z,58.87
2023-03-29T19:09:51.770Z,58.69
2023-03-29T19:12:55.541Z,58.79
2023-03-29T19:15:58.013Z,58.69
2023-03-29T19:19:00.569Z,58.66
2023-03-29T19:22:03.151Z,58.80
2023-03-29T19:25:06.815Z,58.61
2023-03-29T19:28:10.645Z,58.84
2023-03-29T19:31:13.127Z,58.45
2023-03-29T19:34:19.591Z,58.60
2023-03-29T19:37:22.149Z,58.64
2023-03-29T19:40:24.588Z,58.68
2023-03-29T19:43:28.477Z,58.73
2023-03-29T19:46:31.073Z,58.54
2023-03-29T19:49:36.267Z,58.70
2023-03-29T19:52:38.817Z,58.84
2023-03-29T19:55:42.411Z,58.71
2023-03-29T19:58:46.753Z,58.87
2023-03-29T20:01:51.623Z,58.68
2023-03-29T20:04:55.077Z,58.68
2023-03-29T20:07:57.711Z,58.84
2023-03-29T20:11:01.010Z,58.79
2023-03-29T20:14:05.097Z,58.72
2023-03-29T20:17:07.657Z,58.85
2023-03-29T20:20:12.052Z,59.00
2023-03-29T20:23:15.454Z,59.02
2023-03-29T20:26:18.146Z,58.81
2023-03-29T20:29:22.165Z,58.63
2023-03-29T20:32:24.765Z,58.67
2023-03-29T20:35:27.363Z,58.64
2023-03-29T20:38:30.319Z,58.62
2023-03-29T20:41:33.788Z,59.19
2023-03-29T20:44:39.088Z,58.96
2023-03-29T20:47:50.176Z,59.09
2023-03-29T20:50:53.053Z,58.66
2023-03-29T20:54:02.087Z,58.85
2023-03-29T20:57:05.023Z,59.14
2023-03-29T21:00:12.196Z,58.84
2023-03-29T21:03:15.210Z,58.59
2023-03-29T21:06:19.296Z,58.87
2023-03-29T21:09:23.604Z,58.93
2023-03-29T21:12:26.161Z,58.76
2023-03-29T21:15:31.071Z,58.82
2023-03-29T21:18:34.183Z,58.64
2023-03-29T21:21:36.858Z,59.00
2023-03-29T21:24:39.306Z,58.81
2023-03-29T21:27:42.370Z,58.66
2023-03-29T21:30:46.241Z,59.00
2023-03-29T21:33:48.794Z,58.98
2023-03-29T21:36:51.651Z,59.17
2023-03-29T21:39:54.356Z,58.81
2023-03-29T21:42:56.785Z,58.85
2023-03-29T21:46:00.895Z,58.92
2023-03-29T21:49:03.697Z,58.83
2023-03-29T21:52:06.236Z,59.15
2023-03-29T21:55:09.553Z,58.88
2023-03-29T21:58:12.263Z,58.91
2023-03-29T22:01:16.195Z,59.25
2023-03-29T22:04:29.545Z,59.19
2023-03-29T22:07:39.730Z,59.20
2023-03-29T22:10:42.288Z,59.06
2023-03-29T22:13:45.122Z,58.98
2023-03-29T22:16:49.164Z,58.91
2023-03-29T22:19:51.621Z,59.06
2023-03-29T22:22:54.170Z,58.88
2023-03-29T22:25:56.731Z,59.15
2023-03-29T22:29:01.141Z,59.10
2023-03-29T22:32:05.813Z,59.40
2023-03-29T22:35:09.252Z,59.30
2023-03-29T22:38:13.233Z,59.26
2023-03-29T22:41:17.475Z,59.32
2023-03-29T22:44:19.994Z,58.98
2023-03-29T22:47:23.854Z,58.90
2023-03-29T22:50:26.435Z,59.17
2023-03-29T22:53:29.284Z,59.29
2023-03-29T22:56:31.774Z,59.46
2023-03-29T22:59:34.303Z,59.42
2023-03-29T23:02:38.503Z,59.41
2023-03-29T23:05:41.250Z,59.21
2023-03-29T23:08:43.909Z,59.43
2023-03-29T23:11:46.434Z,59.36
2023-03-29T23:14:49.227Z,59.34
2023-03-29T23:17:53.000Z,59.38
2023-03-29T23:20:57.221Z,59.56
2023-03-29T23:24:00.555Z,59.47
2023-03-29T23:27:04.866Z,59.64
2023-03-29T23:30:09.661Z,59.52
2023-03-29T23:33:14.469Z,59.22
2023-03-29T23:36:19.083Z,59.15
2023-03-29T23:39:21.614Z,59.41
2023-03-29T23:42:24.547Z,59.43
2023-03-29T23:45:28.520Z,59.41
2023-03-29T23:48:34.475Z,59.64
2023-03-29T23:51:37.068Z,59.53
2023-03-29T23:54:39.570Z,59.97
2023-03-29T23:57:42.807Z,59.56
